sensor_id;sensor_type;location;lat;lon;timestamp;pressure;altitude;pressure_sealevel;temperature;humidity
77288;BME280;66345;42.694;23.346;2023-12-20T00:02:13;95972.41;;;-0.72;93.82
77288;BME280;66345;42.694;23.346;2023-12-20T00:04:38;95975.31;;;-0.76;94.04
77288;BME280;66345;42.694;23.346;2023-12-20T00:07:03;95969.69;;;-0.70;94.67
77288;BME280;66345;42.694;23.346;2023-12-20T00:09:29;95961.72;;;-0.56;93.84
77288;BME280;66345;42.694;23.346;2023-12-20T00:11:54;95954.81;;;-0.44;93.32
77288;BME280;66345;42.694;23.346;2023-12-20T00:14:20;95953.09;;;-0.57;92.58
77288;BME280;66345;42.694;23.346;2023-12-20T00:16:45;95961.44;;;-0.64;92.97
77288;BME280;66345;42.694;23.346;2023-12-20T00:19:11;95962.28;;;-0.64;92.75
77288;BME280;66345;42.694;23.346;2023-12-20T00:21:36;95958.78;;;-0.75;93.24
77288;BME280;66345;42.694;23.346;2023-12-20T00:24:02;95947.03;;;-0.57;93.62
77288;BME280;66345;42.694;23.346;2023-12-20T00:26:27;95952.31;;;-0.46;93.20
77288;BME280;66345;42.694;23.346;2023-12-20T00:28:53;95942.19;;;-0.38;92.12
77288;BME280;66345;42.694;23.346;2023-12-20T00:31:19;95948.38;;;-0.28;91.43
77288;BME280;66345;42.694;23.346;2023-12-20T00:33:44;95928.25;;;-0.25;90.82
77288;BME280;66345;42.694;23.346;2023-12-20T00:36:11;95931.25;;;-0.19;90.73
77288;BME280;66345;42.694;23.346;2023-12-20T00:38:37;95931.75;;;-0.14;90.33
77288;BME280;66345;42.694;23.346;2023-12-20T00:41:02;95929.53;;;-0.07;89.54
77288;BME280;66345;42.694;23.346;2023-12-20T00:43:28;95926.53;;;-0.14;89.54
77288;BME280;66345;42.694;23.346;2023-12-20T00:45:53;95926.84;;;-0.18;89.36
77288;BME280;66345;42.694;23.346;2023-12-20T00:48:19;95923.75;;;-0.23;88.48
77288;BME280;66345;42.694;23.346;2023-12-20T00:50:44;95917.28;;;-0.42;88.58
77288;BME280;66345;42.694;23.346;2023-12-20T00:53:10;95917.00;;;-0.50;87.97
77288;BME280;66345;42.694;23.346;2023-12-20T00:55:35;95911.47;;;-0.45;88.08
77288;BME280;66345;42.694;23.346;2023-12-20T00:58:00;95911.06;;;-0.52;87.49
77288;BME280;66345;42.694;23.346;2023-12-20T01:00:26;95912.16;;;-0.43;87.89
77288;BME280;66345;42.694;23.346;2023-12-20T01:02:52;95909.06;;;-0.48;87.48
77288;BME280;66345;42.694;23.346;2023-12-20T01:05:18;95911.66;;;-0.48;87.30
77288;BME280;66345;42.694;23.346;2023-12-20T01:07:44;95915.34;;;-0.51;87.19
77288;BME280;66345;42.694;23.346;2023-12-20T01:10:10;95899.56;;;-0.49;86.92
77288;BME280;66345;42.694;23.346;2023-12-20T01:12:36;95891.59;;;-0.59;86.85
77288;BME280;66345;42.694;23.346;2023-12-20T01:15:02;95890.41;;;-0.55;86.38
77288;BME280;66345;42.694;23.346;2023-12-20T01:17:27;95896.47;;;-0.54;86.13
77288;BME280;66345;42.694;23.346;2023-12-20T01:19:53;95902.88;;;-0.71;86.57
77288;BME280;66345;42.694;23.346;2023-12-20T01:22:18;95888.19;;;-0.96;87.98
77288;BME280;66345;42.694;23.346;2023-12-20T01:24:44;95886.25;;;-0.81;87.71
77288;BME280;66345;42.694;23.346;2023-12-20T01:27:09;95888.78;;;-0.93;88.48
77288;BME280;66345;42.694;23.346;2023-12-20T01:29:35;95880.00;;;-0.79;88.17
77288;BME280;66345;42.694;23.346;2023-12-20T01:32:00;95878.94;;;-0.76;87.59
77288;BME280;66345;42.694;23.346;2023-12-20T01:34:26;95867.34;;;-0.72;87.14
77288;BME280;66345;42.694;23.346;2023-12-20T01:36:52;95865.97;;;-0.65;87.36
77288;BME280;66345;42.694;23.346;2023-12-20T01:39:17;95862.66;;;-0.67;87.33
77288;BME280;66345;42.694;23.346;2023-12-20T01:41:43;95861.75;;;-0.79;87.02
77288;BME280;66345;42.694;23.346;2023-12-20T01:44:08;95855.03;;;-0.94;87.90
77288;BME280;66345;42.694;23.346;2023-12-20T01:46:34;95847.13;;;-0.93;88.50
77288;BME280;66345;42.694;23.346;2023-12-20T01:49:00;95859.03;;;-1.01;89.00
77288;BME280;66345;42.694;23.346;2023-12-20T01:51:26;95844.63;;;-0.94;88.67
77288;BME280;66345;42.694;23.346;2023-12-20T01:53:54;95836.25;;;-0.87;87.75
77288;BME280;66345;42.694;23.346;2023-12-20T01:56:20;95840.41;;;-0.84;87.52
77288;BME280;66345;42.694;23.346;2023-12-20T01:58:47;95840.63;;;-0.87;87.30
77288;BME280;66345;42.694;23.346;2023-12-20T02:01:13;95838.34;;;-0.92;86.68
77288;BME280;66345;42.694;23.346;2023-12-20T02:03:41;95837.97;;;-0.98;86.81
77288;BME280;66345;42.694;23.346;2023-12-20T02:06:07;95851.09;;;-1.00;86.73
77288;BME280;66345;42.694;23.346;2023-12-20T02:08:33;95824.88;;;-1.09;86.10
77288;BME280;66345;42.694;23.346;2023-12-20T02:10:59;95831.34;;;-1.15;86.05
77288;BME280;66345;42.694;23.346;2023-12-20T02:13:25;95835.97;;;-1.31;86.42
77288;BME280;66345;42.694;23.346;2023-12-20T02:15:52;95837.22;;;-1.24;86.39
77288;BME280;66345;42.694;23.346;2023-12-20T02:18:18;95824.75;;;-1.32;85.99
77288;BME280;66345;42.694;23.346;2023-12-20T02:20:43;95828.41;;;-1.34;86.42
77288;BME280;66345;42.694;23.346;2023-12-20T02:23:09;95820.25;;;-1.30;86.54
77288;BME280;66345;42.694;23.346;2023-12-20T02:25:34;95819.31;;;-1.29;86.00
77288;BME280;66345;42.694;23.346;2023-12-20T02:28:00;95823.94;;;-1.45;86.19
77288;BME280;66345;42.694;23.346;2023-12-20T02:30:26;95813.94;;;-1.38;86.40
77288;BME280;66345;42.694;23.346;2023-12-20T02:32:52;95810.44;;;-1.50;86.35
77288;BME280;66345;42.694;23.346;2023-12-20T02:35:18;95812.69;;;-1.46;86.92
77288;BME280;66345;42.694;23.346;2023-12-20T02:37:44;95805.13;;;-1.49;86.97
77288;BME280;66345;42.694;23.346;2023-12-20T02:40:09;95803.75;;;-1.42;87.18
77288;BME280;66345;42.694;23.346;2023-12-20T02:42:35;95792.41;;;-1.53;87.09
77288;BME280;66345;42.694;23.346;2023-12-20T02:45:01;95796.47;;;-1.49;87.35
77288;BME280;66345;42.694;23.346;2023-12-20T02:47:26;95791.19;;;-1.60;87.55
77288;BME280;66345;42.694;23.346;2023-12-20T02:49:52;95799.38;;;-1.54;88.25
77288;BME280;66345;42.694;23.346;2023-12-20T02:52:18;95789.84;;;-1.66;87.94
77288;BME280;66345;42.694;23.346;2023-12-20T02:54:44;95801.47;;;-1.59;88.01
77288;BME280;66345;42.694;23.346;2023-12-20T02:57:09;95787.03;;;-1.63;88.68
77288;BME280;66345;42.694;23.346;2023-12-20T02:59:35;95804.41;;;-1.63;89.35
77288;BME280;66345;42.694;23.346;2023-12-20T03:02:00;95803.59;;;-1.64;90.11
77288;BME280;66345;42.694;23.346;2023-12-20T03:04:26;95797.97;;;-1.58;90.59
77288;BME280;66345;42.694;23.346;2023-12-20T03:06:51;95798.44;;;-1.53;89.72
77288;BME280;66345;42.694;23.346;2023-12-20T03:09:17;95793.66;;;-1.59;90.05
77288;BME280;66345;42.694;23.346;2023-12-20T03:11:42;95797.31;;;-1.49;90.07
77288;BME280;66345;42.694;23.346;2023-12-20T03:14:08;95795.97;;;-1.54;90.38
77288;BME280;66345;42.694;23.346;2023-12-20T03:16:33;95798.56;;;-1.54;90.73
77288;BME280;66345;42.694;23.346;2023-12-20T03:18:59;95788.16;;;-1.67;91.10
77288;BME280;66345;42.694;23.346;2023-12-20T03:21:24;95800.28;;;-1.79;92.26
77288;BME280;66345;42.694;23.346;2023-12-20T03:23:50;95792.03;;;-1.73;92.22
77288;BME280;66345;42.694;23.346;2023-12-20T03:26:16;95789.88;;;-1.91;92.36
77288;BME280;66345;42.694;23.346;2023-12-20T03:28:41;95786.75;;;-1.97;92.87
77288;BME280;66345;42.694;23.346;2023-12-20T03:31:07;95775.53;;;-2.10;94.01
77288;BME280;66345;42.694;23.346;2023-12-20T03:33:32;95784.25;;;-1.98;93.89
77288;BME280;66345;42.694;23.346;2023-12-20T03:35:58;95767.09;;;-1.88;94.15
77288;BME280;66345;42.694;23.346;2023-12-20T03:38:23;95774.03;;;-1.63;93.05
77288;BME280;66345;42.694;23.346;2023-12-20T03:40:50;95766.44;;;-1.66;92.17
77288;BME280;66345;42.694;23.346;2023-12-20T03:43:15;95768.44;;;-1.82;92.98
77288;BME280;66345;42.694;23.346;2023-12-20T03:45:42;95767.88;;;-1.62;92.92
77288;BME280;66345;42.694;23.346;2023-12-20T03:48:07;95773.25;;;-1.52;92.05
77288;BME280;66345;42.694;23.346;2023-12-20T03:50:34;95764.03;;;-1.69;91.49
77288;BME280;66345;42.694;23.346;2023-12-20T03:52:59;95763.63;;;-1.63;91.72
77288;BME280;66345;42.694;23.346;2023-12-20T03:55:25;95760.59;;;-1.57;91.51
77288;BME280;66345;42.694;23.346;2023-12-20T03:57:50;95764.72;;;-1.42;91.40
77288;BME280;66345;42.694;23.346;2023-12-20T04:00:16;95762.41;;;-1.46;90.64
77288;BME280;66345;42.694;23.346;2023-12-20T04:02:42;95773.16;;;-1.51;91.02
77288;BME280;66345;42.694;23.346;2023-12-20T04:05:09;95763.13;;;-1.44;90.85
77288;BME280;66345;42.694;23.346;2023-12-20T04:07:38;95761.91;;;-1.51;90.98
77288;BME280;66345;42.694;23.346;2023-12-20T04:10:04;95748.13;;;-1.64;91.50
77288;BME280;66345;42.694;23.346;2023-12-20T04:12:30;95748.84;;;-1.62;91.54
77288;BME280;66345;42.694;23.346;2023-12-20T04:14:56;95749.34;;;-1.57;91.51
77288;BME280;66345;42.694;23.346;2023-12-20T04:17:22;95752.34;;;-1.51;91.38
77288;BME280;66345;42.694;23.346;2023-12-20T04:19:51;95744.75;;;-1.54;90.70
77288;BME280;66345;42.694;23.346;2023-12-20T04:22:17;95745.66;;;-1.42;90.54
77288;BME280;66345;42.694;23.346;2023-12-20T04:24:43;95734.69;;;-1.58;90.24
77288;BME280;66345;42.694;23.346;2023-12-20T04:27:09;95724.16;;;-1.57;90.58
77288;BME280;66345;42.694;23.346;2023-12-20T04:29:34;95733.00;;;-1.59;90.72
77288;BME280;66345;42.694;23.346;2023-12-20T04:32:00;95734.16;;;-1.51;90.29
77288;BME280;66345;42.694;23.346;2023-12-20T04:34:26;95720.50;;;-1.54;90.74
77288;BME280;66345;42.694;23.346;2023-12-20T04:36:52;95718.41;;;-1.49;89.59
77288;BME280;66345;42.694;23.346;2023-12-20T04:39:18;95719.91;;;-1.58;89.75
77288;BME280;66345;42.694;23.346;2023-12-20T04:41:43;95724.50;;;-1.74;89.18
77288;BME280;66345;42.694;23.346;2023-12-20T04:44:09;95726.78;;;-1.70;88.95
77288;BME280;66345;42.694;23.346;2023-12-20T04:46:34;95728.06;;;-1.75;88.09
77288;BME280;66345;42.694;23.346;2023-12-20T04:48:59;95721.53;;;-1.81;88.58
77288;BME280;66345;42.694;23.346;2023-12-20T04:51:25;95721.56;;;-2.06;88.48
77288;BME280;66345;42.694;23.346;2023-12-20T04:53:50;95721.78;;;-2.22;88.89
77288;BME280;66345;42.694;23.346;2023-12-20T04:56:16;95721.47;;;-2.17;90.11
77288;BME280;66345;42.694;23.346;2023-12-20T04:58:44;95718.13;;;-2.07;89.63
77288;BME280;66345;42.694;23.346;2023-12-20T05:01:10;95720.44;;;-2.28;90.28
77288;BME280;66345;42.694;23.346;2023-12-20T05:03:37;95720.66;;;-2.31;89.99
77288;BME280;66345;42.694;23.346;2023-12-20T05:06:02;95712.31;;;-2.23;90.66
77288;BME280;66345;42.694;23.346;2023-12-20T05:08:28;95730.53;;;-2.10;90.48
77288;BME280;66345;42.694;23.346;2023-12-20T05:10:54;95726.47;;;-2.40;90.63
77288;BME280;66345;42.694;23.346;2023-12-20T05:13:20;95708.91;;;-2.24;90.89
77288;BME280;66345;42.694;23.346;2023-12-20T05:15:46;95722.50;;;-2.20;90.60
77288;BME280;66345;42.694;23.346;2023-12-20T05:18:12;95708.97;;;-2.00;89.89
77288;BME280;66345;42.694;23.346;2023-12-20T05:20:38;95701.47;;;-2.04;89.67
77288;BME280;66345;42.694;23.346;2023-12-20T05:23:03;95707.97;;;-2.35;90.26
77288;BME280;66345;42.694;23.346;2023-12-20T05:25:29;95704.47;;;-2.34;90.09
77288;BME280;66345;42.694;23.346;2023-12-20T05:27:54;95705.56;;;-2.51;90.59
77288;BME280;66345;42.694;23.346;2023-12-20T05:30:20;95699.84;;;-2.82;92.32
77288;BME280;66345;42.694;23.346;2023-12-20T05:32:45;95695.72;;;-2.71;92.80
77288;BME280;66345;42.694;23.346;2023-12-20T05:35:11;95698.41;;;-2.22;92.61
77288;BME280;66345;42.694;23.346;2023-12-20T05:37:36;95679.50;;;-2.24;91.27
77288;BME280;66345;42.694;23.346;2023-12-20T05:40:02;95704.22;;;-2.44;90.98
77288;BME280;66345;42.694;23.346;2023-12-20T05:42:29;95685.00;;;-2.67;91.91
77288;BME280;66345;42.694;23.346;2023-12-20T05:44:55;95694.88;;;-2.59;92.68
77288;BME280;66345;42.694;23.346;2023-12-20T05:47:20;95686.34;;;-2.74;92.65
77288;BME280;66345;42.694;23.346;2023-12-20T05:49:46;95694.34;;;-2.52;92.72
77288;BME280;66345;42.694;23.346;2023-12-20T05:52:11;95691.97;;;-2.67;92.42
77288;BME280;66345;42.694;23.346;2023-12-20T05:54:36;95675.69;;;-2.57;93.18
77288;BME280;66345;42.694;23.346;2023-12-20T05:57:02;95680.88;;;-2.57;92.12
77288;BME280;66345;42.694;23.346;2023-12-20T05:59:28;95679.25;;;-2.21;92.24
77288;BME280;66345;42.694;23.346;2023-12-20T06:01:53;95673.94;;;-2.07;90.10
77288;BME280;66345;42.694;23.346;2023-12-20T06:04:19;95683.63;;;-2.09;90.62
77288;BME280;66345;42.694;23.346;2023-12-20T06:06:44;95655.84;;;-1.96;89.82
77288;BME280;66345;42.694;23.346;2023-12-20T06:09:10;95677.88;;;-1.88;89.18
77288;BME280;66345;42.694;23.346;2023-12-20T06:11:36;95668.44;;;-2.15;89.54
77288;BME280;66345;42.694;23.346;2023-12-20T06:14:01;95666.13;;;-2.07;90.44
77288;BME280;66345;42.694;23.346;2023-12-20T06:16:27;95675.69;;;-2.57;91.84
77288;BME280;66345;42.694;23.346;2023-12-20T06:18:52;95677.00;;;-2.26;92.55
77288;BME280;66345;42.694;23.346;2023-12-20T06:21:18;95671.97;;;-2.03;90.71
77288;BME280;66345;42.694;23.346;2023-12-20T06:23:43;95680.19;;;-2.09;90.92
77288;BME280;66345;42.694;23.346;2023-12-20T06:26:09;95674.06;;;-2.21;90.75
77288;BME280;66345;42.694;23.346;2023-12-20T06:28:34;95683.25;;;-2.41;91.27
77288;BME280;66345;42.694;23.346;2023-12-20T06:31:00;95674.72;;;-2.43;92.44
77288;BME280;66345;42.694;23.346;2023-12-20T06:33:26;95672.41;;;-2.35;92.46
77288;BME280;66345;42.694;23.346;2023-12-20T06:35:52;95688.75;;;-2.33;92.08
77288;BME280;66345;42.694;23.346;2023-12-20T06:38:18;95672.94;;;-2.42;92.61
77288;BME280;66345;42.694;23.346;2023-12-20T06:40:44;95676.78;;;-2.35;92.86
77288;BME280;66345;42.694;23.346;2023-12-20T06:43:12;95677.00;;;-2.26;92.82
77288;BME280;66345;42.694;23.346;2023-12-20T06:45:38;95661.91;;;-2.20;92.84
77288;BME280;66345;42.694;23.346;2023-12-20T06:48:04;95665.56;;;-2.23;92.69
77288;BME280;66345;42.694;23.346;2023-12-20T06:50:30;95661.47;;;-2.14;91.97
77288;BME280;66345;42.694;23.346;2023-12-20T06:52:55;95660.09;;;-2.07;92.28
77288;BME280;66345;42.694;23.346;2023-12-20T06:55:21;95655.31;;;-2.01;91.56
77288;BME280;66345;42.694;23.346;2023-12-20T06:57:46;95660.03;;;-1.82;90.74
77288;BME280;66345;42.694;23.346;2023-12-20T07:00:12;95653.56;;;-1.76;90.14
77288;BME280;66345;42.694;23.346;2023-12-20T07:02:38;95650.88;;;-1.51;89.58
77288;BME280;66345;42.694;23.346;2023-12-20T07:05:04;95637.75;;;-1.73;89.76
77288;BME280;66345;42.694;23.346;2023-12-20T07:07:30;95643.41;;;-1.79;90.14
77288;BME280;66345;42.694;23.346;2023-12-20T07:09:55;95645.91;;;-1.90;90.78
77288;BME280;66345;42.694;23.346;2023-12-20T07:12:21;95649.00;;;-1.73;91.06
77288;BME280;66345;42.694;23.346;2023-12-20T07:14:46;95643.91;;;-1.50;89.20
77288;BME280;66345;42.694;23.346;2023-12-20T07:17:12;95632.00;;;-1.42;89.04
77288;BME280;66345;42.694;23.346;2023-12-20T07:19:40;95634.97;;;-1.59;89.84
77288;BME280;66345;42.694;23.346;2023-12-20T07:22:06;95632.88;;;-1.54;90.28
77288;BME280;66345;42.694;23.346;2023-12-20T07:24:31;95640.00;;;-1.21;90.31
77288;BME280;66345;42.694;23.346;2023-12-20T07:26:58;95624.09;;;-1.29;88.91
77288;BME280;66345;42.694;23.346;2023-12-20T07:29:24;95626.56;;;-0.92;87.04
77288;BME280;66345;42.694;23.346;2023-12-20T07:31:50;95625.56;;;-1.14;87.75
77288;BME280;66345;42.694;23.346;2023-12-20T07:34:17;95619.25;;;-1.22;88.44
77288;BME280;66345;42.694;23.346;2023-12-20T07:36:42;95631.91;;;-1.29;89.28
77288;BME280;66345;42.694;23.346;2023-12-20T07:39:08;95622.16;;;-1.03;88.81
77288;BME280;66345;42.694;23.346;2023-12-20T07:41:33;95605.50;;;-0.78;88.05
77288;BME280;66345;42.694;23.346;2023-12-20T07:43:59;95624.00;;;-0.70;87.25
77288;BME280;66345;42.694;23.346;2023-12-20T07:46:24;95607.44;;;-0.58;85.56
77288;BME280;66345;42.694;23.346;2023-12-20T07:48:50;95609.69;;;-0.42;85.64
77288;BME280;66345;42.694;23.346;2023-12-20T07:51:16;95619.66;;;-0.36;86.08
77288;BME280;66345;42.694;23.346;2023-12-20T07:53:41;95606.59;;;-0.36;85.90
77288;BME280;66345;42.694;23.346;2023-12-20T07:56:14;95602.94;;;-0.44;85.75
77288;BME280;66345;42.694;23.346;2023-12-20T07:58:40;95612.53;;;-0.67;86.92
77288;BME280;66345;42.694;23.346;2023-12-20T08:01:06;95608.72;;;-0.18;85.85
77288;BME280;66345;42.694;23.346;2023-12-20T08:03:31;95601.28;;;-0.34;86.26
77288;BME280;66345;42.694;23.346;2023-12-20T08:05:57;95599.00;;;-0.39;85.25
77288;BME280;66345;42.694;23.346;2023-12-20T08:08:25;95608.50;;;-0.38;85.87
77288;BME280;66345;42.694;23.346;2023-12-20T08:10:50;95595.22;;;-0.23;86.20
77288;BME280;66345;42.694;23.346;2023-12-20T08:13:16;95605.25;;;0.04;85.04
77288;BME280;66345;42.694;23.346;2023-12-20T08:15:42;95600.38;;;0.10;83.43
77288;BME280;66345;42.694;23.346;2023-12-20T08:18:08;95582.88;;;0.33;83.40
77288;BME280;66345;42.694;23.346;2023-12-20T08:20:33;95578.66;;;0.53;82.20
77288;BME280;66345;42.694;23.346;2023-12-20T08:22:59;95565.06;;;0.91;81.12
77288;BME280;66345;42.694;23.346;2023-12-20T08:25:24;95581.84;;;1.19;79.66
77288;BME280;66345;42.694;23.346;2023-12-20T08:27:50;95570.44;;;1.51;77.43
77288;BME280;66345;42.694;23.346;2023-12-20T08:30:15;95574.91;;;0.88;79.40
77288;BME280;66345;42.694;23.346;2023-12-20T08:32:45;95567.34;;;0.32;82.63
77288;BME280;66345;42.694;23.346;2023-12-20T08:35:11;95561.34;;;0.73;80.53
77288;BME280;66345;42.694;23.346;2023-12-20T08:37:37;95568.13;;;0.43;81.78
77288;BME280;66345;42.694;23.346;2023-12-20T08:40:04;95572.16;;;0.04;84.37
77288;BME280;66345;42.694;23.346;2023-12-20T08:42:31;95561.94;;;0.23;85.19
77288;BME280;66345;42.694;23.346;2023-12-20T08:44:59;95557.78;;;0.74;82.45
77288;BME280;66345;42.694;23.346;2023-12-20T08:47:24;95556.63;;;0.67;81.93
77288;BME280;66345;42.694;23.346;2023-12-20T08:49:50;95547.44;;;0.51;83.12
77288;BME280;66345;42.694;23.346;2023-12-20T08:52:16;95547.06;;;0.56;82.70
77288;BME280;66345;42.694;23.346;2023-12-20T08:54:42;95555.13;;;0.32;84.15
77288;BME280;66345;42.694;23.346;2023-12-20T08:57:07;95544.78;;;0.42;83.38
77288;BME280;66345;42.694;23.346;2023-12-20T08:59:33;95541.13;;;0.01;84.74
77288;BME280;66345;42.694;23.346;2023-12-20T09:01:58;95540.81;;;-0.17;86.88
77288;BME280;66345;42.694;23.346;2023-12-20T09:04:25;95529.81;;;-0.20;88.11
77288;BME280;66345;42.694;23.346;2023-12-20T09:06:50;95520.75;;;-0.05;88.64
77288;BME280;66345;42.694;23.346;2023-12-20T09:09:16;95502.88;;;0.43;85.73
77288;BME280;66345;42.694;23.346;2023-12-20T09:11:41;95496.50;;;0.57;84.15
77288;BME280;66345;42.694;23.346;2023-12-20T09:14:07;95492.09;;;0.37;84.74
77288;BME280;66345;42.694;23.346;2023-12-20T09:16:33;95483.59;;;0.55;85.40
77288;BME280;66345;42.694;23.346;2023-12-20T09:18:59;95486.03;;;0.68;84.49
77288;BME280;66345;42.694;23.346;2023-12-20T09:21:24;95470.00;;;0.82;83.68
77288;BME280;66345;42.694;23.346;2023-12-20T09:23:50;95472.41;;;0.95;83.70
77288;BME280;66345;42.694;23.346;2023-12-20T09:26:15;95451.84;;;0.81;84.29
77288;BME280;66345;42.694;23.346;2023-12-20T09:28:40;95453.78;;;0.79;84.10
77288;BME280;66345;42.694;23.346;2023-12-20T09:31:07;95449.69;;;0.86;84.35
77288;BME280;66345;42.694;23.346;2023-12-20T09:33:33;95449.94;;;0.83;83.99
77288;BME280;66345;42.694;23.346;2023-12-20T09:35:59;95435.34;;;0.80;83.95
77288;BME280;66345;42.694;23.346;2023-12-20T09:38:27;95438.34;;;0.24;86.52
77288;BME280;66345;42.694;23.346;2023-12-20T09:40:53;95439.28;;;0.03;87.85
77288;BME280;66345;42.694;23.346;2023-12-20T09:43:20;95425.03;;;0.48;86.96
77288;BME280;66345;42.694;23.346;2023-12-20T09:45:53;95407.78;;;0.67;85.52
77288;BME280;66345;42.694;23.346;2023-12-20T09:48:19;95419.47;;;0.93;84.96
77288;BME280;66345;42.694;23.346;2023-12-20T09:50:45;95408.31;;;1.22;83.83
77288;BME280;66345;42.694;23.346;2023-12-20T09:53:15;95417.84;;;1.02;84.83
77288;BME280;66345;42.694;23.346;2023-12-20T09:55:41;95405.25;;;1.26;83.78
77288;BME280;66345;42.694;23.346;2023-12-20T09:58:07;95388.75;;;1.26;83.54
77288;BME280;66345;42.694;23.346;2023-12-20T10:00:34;95404.88;;;1.41;82.59
77288;BME280;66345;42.694;23.346;2023-12-20T10:03:00;95400.50;;;1.51;83.02
77288;BME280;66345;42.694;23.346;2023-12-20T10:05:31;95398.16;;;1.57;82.59
77288;BME280;66345;42.694;23.346;2023-12-20T10:07:57;95406.97;;;1.37;82.76
77288;BME280;66345;42.694;23.346;2023-12-20T10:10:25;95393.31;;;1.33;83.04
77288;BME280;66345;42.694;23.346;2023-12-20T10:13:09;95386.91;;;1.76;82.35
77288;BME280;66345;42.694;23.346;2023-12-20T10:15:36;95378.78;;;1.79;80.94
77288;BME280;66345;42.694;23.346;2023-12-20T10:18:02;95370.38;;;1.66;81.19
77288;BME280;66345;42.694;23.346;2023-12-20T10:20:29;95370.50;;;1.45;83.02
77288;BME280;66345;42.694;23.346;2023-12-20T10:22:55;95365.00;;;1.87;82.56
77288;BME280;66345;42.694;23.346;2023-12-20T10:25:22;95353.88;;;1.75;81.67
77288;BME280;66345;42.694;23.346;2023-12-20T10:27:49;95352.75;;;1.87;81.92
77288;BME280;66345;42.694;23.346;2023-12-20T10:30:15;95333.91;;;2.40;80.30
77288;BME280;66345;42.694;23.346;2023-12-20T10:32:41;95324.50;;;2.85;78.01
77288;BME280;66345;42.694;23.346;2023-12-20T10:35:07;95327.19;;;3.02;76.40
77288;BME280;66345;42.694;23.346;2023-12-20T10:37:37;95319.44;;;3.01;76.82
77288;BME280;66345;42.694;23.346;2023-12-20T10:40:04;95328.00;;;3.03;75.96
77288;BME280;66345;42.694;23.346;2023-12-20T10:42:32;95317.28;;;2.96;76.04
77288;BME280;66345;42.694;23.346;2023-12-20T10:45:01;95316.56;;;3.04;75.84
77288;BME280;66345;42.694;23.346;2023-12-20T10:47:27;95304.13;;;3.06;75.89
77288;BME280;66345;42.694;23.346;2023-12-20T10:49:54;95304.75;;;3.36;75.76
77288;BME280;66345;42.694;23.346;2023-12-20T10:52:23;95304.53;;;3.29;75.70
77288;BME280;66345;42.694;23.346;2023-12-20T10:54:49;95307.81;;;2.21;78.97
77288;BME280;66345;42.694;23.346;2023-12-20T10:57:16;95311.72;;;1.98;81.17
77288;BME280;66345;42.694;23.346;2023-12-20T10:59:44;95312.69;;;1.87;81.06
77288;BME280;66345;42.694;23.346;2023-12-20T11:02:12;95284.34;;;2.29;81.21
77288;BME280;66345;42.694;23.346;2023-12-20T11:04:47;95281.28;;;1.87;81.18
77288;BME280;66345;42.694;23.346;2023-12-20T11:07:23;95279.44;;;2.16;80.85
77288;BME280;66345;42.694;23.346;2023-12-20T11:09:59;95277.31;;;1.73;82.81
77288;BME280;66345;42.694;23.346;2023-12-20T11:12:35;95280.22;;;2.27;81.67
77288;BME280;66345;42.694;23.346;2023-12-20T11:15:06;95271.13;;;2.31;81.31
77288;BME280;66345;42.694;23.346;2023-12-20T11:17:33;95266.34;;;2.16;81.04
77288;BME280;66345;42.694;23.346;2023-12-20T11:22:30;95261.78;;;2.18;80.76
77288;BME280;66345;42.694;23.346;2023-12-20T11:25:05;95254.41;;;1.94;81.16
77288;BME280;66345;42.694;23.346;2023-12-20T11:27:33;95242.50;;;1.82;82.81
77288;BME280;66345;42.694;23.346;2023-12-20T11:30:03;95232.94;;;2.01;82.63
77288;BME280;66345;42.694;23.346;2023-12-20T11:32:31;95233.28;;;1.69;83.75
77288;BME280;66345;42.694;23.346;2023-12-20T11:37:37;95225.81;;;1.74;84.16
77288;BME280;66345;42.694;23.346;2023-12-20T11:40:07;95212.31;;;1.88;83.80
77288;BME280;66345;42.694;23.346;2023-12-20T11:42:49;95203.97;;;1.75;85.13
77288;BME280;66345;42.694;23.346;2023-12-20T11:45:16;95202.59;;;1.71;84.96
77288;BME280;66345;42.694;23.346;2023-12-20T11:47:45;95204.78;;;1.75;84.86
77288;BME280;66345;42.694;23.346;2023-12-20T11:50:11;95188.94;;;1.77;84.73
77288;BME280;66345;42.694;23.346;2023-12-20T11:52:37;95183.66;;;1.86;84.60
77288;BME280;66345;42.694;23.346;2023-12-20T11:55:02;95182.69;;;1.87;84.56
77288;BME280;66345;42.694;23.346;2023-12-20T11:57:29;95174.19;;;1.85;85.70
77288;BME280;66345;42.694;23.346;2023-12-20T11:59:55;95176.00;;;1.75;85.37
77288;BME280;66345;42.694;23.346;2023-12-20T12:02:21;95159.50;;;1.65;86.27
77288;BME280;66345;42.694;23.346;2023-12-20T12:04:48;95167.25;;;1.57;86.83
77288;BME280;66345;42.694;23.346;2023-12-20T12:07:14;95162.16;;;1.55;87.53
77288;BME280;66345;42.694;23.346;2023-12-20T12:09:39;95157.22;;;1.52;87.30
77288;BME280;66345;42.694;23.346;2023-12-20T12:12:05;95152.63;;;1.64;87.57
77288;BME280;66345;42.694;23.346;2023-12-20T12:14:33;95156.63;;;1.58;87.16
77288;BME280;66345;42.694;23.346;2023-12-20T12:16:59;95140.84;;;1.50;87.21
77288;BME280;66345;42.694;23.346;2023-12-20T12:19:25;95139.16;;;1.69;87.46
77288;BME280;66345;42.694;23.346;2023-12-20T12:22:13;95133.88;;;1.78;86.76
77288;BME280;66345;42.694;23.346;2023-12-20T12:24:45;95136.00;;;1.92;86.49
77288;BME280;66345;42.694;23.346;2023-12-20T12:27:12;95125.41;;;1.94;85.74
77288;BME280;66345;42.694;23.346;2023-12-20T12:29:38;95124.00;;;2.00;86.31
77288;BME280;66345;42.694;23.346;2023-12-20T12:32:08;95119.19;;;1.95;86.26
77288;BME280;66345;42.694;23.346;2023-12-20T12:34:35;95127.38;;;2.10;85.49
77288;BME280;66345;42.694;23.346;2023-12-20T12:37:01;95121.88;;;2.13;84.78
77288;BME280;66345;42.694;23.346;2023-12-20T12:39:27;95126.03;;;2.06;85.38
77288;BME280;66345;42.694;23.346;2023-12-20T12:41:55;95118.09;;;1.98;85.41
77288;BME280;66345;42.694;23.346;2023-12-20T12:44:20;95119.91;;;1.97;85.99
77288;BME280;66345;42.694;23.346;2023-12-20T12:46:49;95118.00;;;1.89;86.32
77288;BME280;66345;42.694;23.346;2023-12-20T12:49:19;95113.94;;;2.05;86.14
77288;BME280;66345;42.694;23.346;2023-12-20T12:51:44;95112.22;;;1.86;86.59
77288;BME280;66345;42.694;23.346;2023-12-20T12:54:10;95109.91;;;1.83;86.61